createdAt,value
2022-09-09T00:09:19.565Z,-0.01
2022-09-09T00:29:19.552Z,-0.01
2022-09-09T00:49:19.539Z,-0.01
2022-09-09T01:09:19.525Z,-0.01
2022-09-09T01:29:19.514Z,-0.01
2022-09-09T01:49:19.503Z,-0.01
2022-09-09T02:09:19.488Z,-0.01
2022-09-09T02:29:19.468Z,-0.01
2022-09-09T02:49:19.491Z,1.98
2022-09-09T03:09:19.475Z,1.98
2022-09-09T03:29:20.198Z,1.98
2022-09-09T03:49:20.183Z,1.98
2022-09-09T04:09:19.647Z,1.97
2022-09-09T04:29:21.156Z,1.97
2022-09-09T04:49:20.143Z,1.96
2022-09-09T05:09:20.128Z,1.96
2022-09-09T05:29:20.115Z,1.96
2022-09-09T05:49:19.360Z,1.96
2022-09-09T06:09:21.084Z,1.96
2022-09-09T06:29:19.544Z,1.96
2022-09-09T06:49:20.051Z,1.96
2022-09-09T07:09:20.035Z,1.97
2022-09-09T07:29:20.017Z,1.97
2022-09-09T07:49:18.260Z,1.98
2022-09-09T08:09:19.981Z,2
2022-09-09T08:29:19.962Z,2.01
2022-09-09T08:49:19.943Z,2.03
2022-09-09T09:09:19.400Z,0
2022-09-09T09:29:19.902Z,0
2022-09-09T09:49:19.358Z,0
2022-09-09T10:09:19.860Z,0
2022-09-09T10:29:19.839Z,0
2022-09-09T10:49:19.041Z,-0.01
2022-09-09T11:09:19.800Z,0
2022-09-09T11:29:19.782Z,0
2022-09-09T11:49:19.241Z,0
2022-09-09T12:09:19.222Z,0
2022-09-09T12:29:19.724Z,0
2022-09-09T12:49:19.706Z,0
2022-09-09T13:09:19.688Z,0
2022-09-09T13:29:19.674Z,0
2022-09-09T13:49:17.879Z,-0.01
2022-09-09T14:09:17.865Z,-0.01
2022-09-09T14:29:17.850Z,-0.01
2022-09-09T14:49:17.830Z,-0.01
2022-09-09T15:09:17.066Z,-0.01
2022-09-09T15:29:17.788Z,-0.01
2022-09-09T15:49:17.767Z,-0.01
2022-09-09T16:09:17.747Z,-0.01
2022-09-09T16:29:15.984Z,-0.01
2022-09-09T16:49:17.708Z,-0.01
2022-09-09T17:09:17.692Z,-0.01
2022-09-09T17:29:17.675Z,-0.01
2022-09-09T17:49:17.659Z,-0.01
2022-09-09T18:09:17.643Z,-0.01
2022-09-09T18:29:17.626Z,-0.01
2022-09-09T18:49:17.610Z,-0.01
2022-09-09T19:09:17.594Z,-0.01
2022-09-09T19:29:17.578Z,-0.01
2022-09-09T19:49:17.563Z,-0.01
2022-09-09T20:09:17.549Z,-0.01
2022-09-09T20:29:17.536Z,-0.01
2022-09-09T20:49:16.778Z,-0.01
2022-09-09T21:09:17.506Z,-0.01
2022-09-09T21:29:17.492Z,-0.01
2022-09-09T21:49:17.516Z,-0.01
2022-09-09T22:09:17.458Z,-0.01
2022-09-09T22:29:16.697Z,-0.01
2022-09-09T22:49:17.424Z,-0.01
2022-09-09T23:09:17.410Z,-0.01
2022-09-09T23:29:15.655Z,-0.01
2022-09-09T23:49:17.386Z,-0.01
